sensor_id;sensor_type;location;lat;lon;timestamp;P1;durP1;ratioP1;P2;durP2;ratioP2
67737;SDS011;54534;43.612;1.572;2023-05-07T00:01:49;2.67;;;1.47;;
67737;SDS011;54534;43.612;1.572;2023-05-07T00:04:15;4.47;;;2.10;;
67737;SDS011;54534;43.612;1.572;2023-05-07T00:06:40;5.07;;;2.03;;
67737;SDS011;54534;43.612;1.572;2023-05-07T00:09:06;3.37;;;1.80;;
67737;SDS011;54534;43.612;1.572;2023-05-07T00:11:32;9.63;;;2.37;;
67737;SDS011;54534;43.612;1.572;2023-05-07T00:13:58;6.27;;;2.10;;
67737;SDS011;54534;43.612;1.572;2023-05-07T00:16:23;7.67;;;1.83;;
67737;SDS011;54534;43.612;1.572;2023-05-07T00:18:49;4.97;;;2.23;;
67737;SDS011;54534;43.612;1.572;2023-05-07T00:21:14;7.47;;;2.37;;
67737;SDS011;54534;43.612;1.572;2023-05-07T00:23:39;6.67;;;1.93;;
67737;SDS011;54534;43.612;1.572;2023-05-07T00:26:05;6.77;;;2.00;;
67737;SDS011;54534;43.612;1.572;2023-05-07T00:28:30;4.53;;;1.80;;
67737;SDS011;54534;43.612;1.572;2023-05-07T00:30:55;3.30;;;1.60;;
67737;SDS011;54534;43.612;1.572;2023-05-07T00:33:21;4.67;;;1.67;;
67737;SDS011;54534;43.612;1.572;2023-05-07T00:35:47;4.53;;;1.87;;
67737;SDS011;54534;43.612;1.572;2023-05-07T00:38:13;4.23;;;1.63;;
67737;SDS011;54534;43.612;1.572;2023-05-07T00:40:38;4.53;;;2.03;;
67737;SDS011;54534;43.612;1.572;2023-05-07T00:43:04;3.50;;;1.60;;
67737;SDS011;54534;43.612;1.572;2023-05-07T00:45:29;3.90;;;1.80;;
67737;SDS011;54534;43.612;1.572;2023-05-07T00:47:55;3.30;;;1.60;;
67737;SDS011;54534;43.612;1.572;2023-05-07T00:50:23;3.60;;;2.07;;
67737;SDS011;54534;43.612;1.572;2023-05-07T00:52:49;7.83;;;1.70;;
67737;SDS011;54534;43.612;1.572;2023-05-07T00:55:14;2.90;;;1.47;;
67737;SDS011;54534;43.612;1.572;2023-05-07T00:57:40;3.97;;;1.60;;
67737;SDS011;54534;43.612;1.572;2023-05-07T01:00:07;3.30;;;1.80;;
67737;SDS011;54534;43.612;1.572;2023-05-07T01:02:38;2.07;;;1.70;;
67737;SDS011;54534;43.612;1.572;2023-05-07T01:07:31;4.60;;;1.63;;
67737;SDS011;54534;43.612;1.572;2023-05-07T01:09:57;2.30;;;1.70;;
67737;SDS011;54534;43.612;1.572;2023-05-07T01:12:23;4.07;;;1.97;;
67737;SDS011;54534;43.612;1.572;2023-05-07T01:14:50;6.23;;;1.87;;
67737;SDS011;54534;43.612;1.572;2023-05-07T01:17:16;3.53;;;1.93;;
67737;SDS011;54534;43.612;1.572;2023-05-07T01:19:42;2.70;;;1.70;;
67737;SDS011;54534;43.612;1.572;2023-05-07T01:22:09;2.47;;;1.77;;
67737;SDS011;54534;43.612;1.572;2023-05-07T01:24:36;5.57;;;1.53;;
67737;SDS011;54534;43.612;1.572;2023-05-07T01:27:02;2.80;;;1.40;;
67737;SDS011;54534;43.612;1.572;2023-05-07T01:29:28;3.80;;;1.70;;
67737;SDS011;54534;43.612;1.572;2023-05-07T01:31:59;1.80;;;1.40;;
67737;SDS011;54534;43.612;1.572;2023-05-07T01:34:26;3.70;;;1.60;;
67737;SDS011;54534;43.612;1.572;2023-05-07T01:36:54;2.33;;;1.70;;
67737;SDS011;54534;43.612;1.572;2023-05-07T01:39:21;7.23;;;2.33;;
67737;SDS011;54534;43.612;1.572;2023-05-07T01:41:49;3.77;;;1.87;;
67737;SDS011;54534;43.612;1.572;2023-05-07T01:44:15;2.93;;;1.30;;
67737;SDS011;54534;43.612;1.572;2023-05-07T01:46:41;2.20;;;1.40;;
67737;SDS011;54534;43.612;1.572;2023-05-07T01:49:07;2.10;;;1.87;;
67737;SDS011;54534;43.612;1.572;2023-05-07T01:51:33;4.13;;;1.73;;
67737;SDS011;54534;43.612;1.572;2023-05-07T01:53:59;3.10;;;1.97;;
67737;SDS011;54534;43.612;1.572;2023-05-07T01:56:25;2.60;;;1.37;;
67737;SDS011;54534;43.612;1.572;2023-05-07T01:58:50;2.30;;;1.43;;
67737;SDS011;54534;43.612;1.572;2023-05-07T02:01:16;2.57;;;1.27;;
67737;SDS011;54534;43.612;1.572;2023-05-07T02:03:43;2.80;;;1.63;;
67737;SDS011;54534;43.612;1.572;2023-05-07T02:06:08;2.33;;;1.70;;
67737;SDS011;54534;43.612;1.572;2023-05-07T02:08:34;1.30;;;1.20;;
67737;SDS011;54534;43.612;1.572;2023-05-07T02:10:59;2.53;;;1.50;;
67737;SDS011;54534;43.612;1.572;2023-05-07T02:13:26;2.07;;;1.57;;
67737;SDS011;54534;43.612;1.572;2023-05-07T02:15:55;2.50;;;1.87;;
67737;SDS011;54534;43.612;1.572;2023-05-07T02:18:20;2.13;;;1.57;;
67737;SDS011;54534;43.612;1.572;2023-05-07T02:20:46;3.23;;;1.60;;
67737;SDS011;54534;43.612;1.572;2023-05-07T02:23:11;1.50;;;1.37;;
67737;SDS011;54534;43.612;1.572;2023-05-07T02:25:36;5.30;;;1.20;;
67737;SDS011;54534;43.612;1.572;2023-05-07T02:28:02;2.00;;;1.77;;
67737;SDS011;54534;43.612;1.572;2023-05-07T02:30:28;1.87;;;1.40;;
67737;SDS011;54534;43.612;1.572;2023-05-07T02:32:53;2.93;;;1.47;;
67737;SDS011;54534;43.612;1.572;2023-05-07T02:35:18;4.90;;;1.50;;
67737;SDS011;54534;43.612;1.572;2023-05-07T02:37:44;1.53;;;1.20;;
67737;SDS011;54534;43.612;1.572;2023-05-07T02:40:09;3.93;;;1.50;;
67737;SDS011;54534;43.612;1.572;2023-05-07T02:42:36;6.50;;;1.60;;
67737;SDS011;54534;43.612;1.572;2023-05-07T02:45:01;1.47;;;1.20;;
67737;SDS011;54534;43.612;1.572;2023-05-07T02:47:26;3.13;;;1.37;;
67737;SDS011;54534;43.612;1.572;2023-05-07T02:49:53;2.27;;;1.57;;
67737;SDS011;54534;43.612;1.572;2023-05-07T02:52:19;2.97;;;1.40;;
67737;SDS011;54534;43.612;1.572;2023-05-07T02:54:44;1.93;;;1.37;;
67737;SDS011;54534;43.612;1.572;2023-05-07T02:57:10;2.40;;;1.20;;
67737;SDS011;54534;43.612;1.572;2023-05-07T02:59:35;1.47;;;1.17;;
67737;SDS011;54534;43.612;1.572;2023-05-07T03:02:01;3.13;;;1.60;;
67737;SDS011;54534;43.612;1.572;2023-05-07T03:04:27;4.13;;;1.57;;
67737;SDS011;54534;43.612;1.572;2023-05-07T03:06:52;2.97;;;1.30;;
67737;SDS011;54534;43.612;1.572;2023-05-07T03:09:17;2.60;;;1.40;;
67737;SDS011;54534;43.612;1.572;2023-05-07T03:11:43;2.00;;;1.40;;
67737;SDS011;54534;43.612;1.572;2023-05-07T03:14:08;2.67;;;1.50;;
67737;SDS011;54534;43.612;1.572;2023-05-07T03:16:34;1.97;;;1.30;;
67737;SDS011;54534;43.612;1.572;2023-05-07T03:19:00;3.10;;;1.40;;
67737;SDS011;54534;43.612;1.572;2023-05-07T03:21:25;3.13;;;1.43;;
67737;SDS011;54534;43.612;1.572;2023-05-07T03:23:51;2.87;;;1.40;;
67737;SDS011;54534;43.612;1.572;2023-05-07T03:26:16;2.33;;;1.33;;
67737;SDS011;54534;43.612;1.572;2023-05-07T03:28:42;1.67;;;1.33;;
67737;SDS011;54534;43.612;1.572;2023-05-07T03:31:07;3.73;;;1.70;;
67737;SDS011;54534;43.612;1.572;2023-05-07T03:33:33;2.50;;;1.50;;
67737;SDS011;54534;43.612;1.572;2023-05-07T03:36:00;1.37;;;1.27;;
67737;SDS011;54534;43.612;1.572;2023-05-07T03:38:25;3.83;;;1.60;;
67737;SDS011;54534;43.612;1.572;2023-05-07T03:40:51;2.87;;;1.50;;
67737;SDS011;54534;43.612;1.572;2023-05-07T03:43:16;2.63;;;1.40;;
67737;SDS011;54534;43.612;1.572;2023-05-07T03:45:42;1.63;;;1.33;;
67737;SDS011;54534;43.612;1.572;2023-05-07T03:48:07;4.50;;;1.67;;
67737;SDS011;54534;43.612;1.572;2023-05-07T03:50:32;1.67;;;1.10;;
67737;SDS011;54534;43.612;1.572;2023-05-07T03:52:58;1.77;;;1.30;;
67737;SDS011;54534;43.612;1.572;2023-05-07T03:55:23;1.77;;;1.20;;
67737;SDS011;54534;43.612;1.572;2023-05-07T03:57:49;2.70;;;1.47;;
67737;SDS011;54534;43.612;1.572;2023-05-07T04:00:14;2.30;;;1.50;;
67737;SDS011;54534;43.612;1.572;2023-05-07T04:02:40;1.30;;;1.20;;
67737;SDS011;54534;43.612;1.572;2023-05-07T04:05:05;2.73;;;1.70;;
67737;SDS011;54534;43.612;1.572;2023-05-07T04:07:31;3.60;;;1.47;;
67737;SDS011;54534;43.612;1.572;2023-05-07T04:09:56;2.80;;;1.53;;
67737;SDS011;54534;43.612;1.572;2023-05-07T04:12:22;2.27;;;1.43;;
67737;SDS011;54534;43.612;1.572;2023-05-07T04:14:47;3.83;;;1.40;;
67737;SDS011;54534;43.612;1.572;2023-05-07T04:17:12;2.67;;;1.27;;
67737;SDS011;54534;43.612;1.572;2023-05-07T04:19:38;2.70;;;1.33;;
67737;SDS011;54534;43.612;1.572;2023-05-07T04:22:03;2.17;;;1.30;;
67737;SDS011;54534;43.612;1.572;2023-05-07T04:24:31;2.40;;;1.27;;
67737;SDS011;54534;43.612;1.572;2023-05-07T04:26:57;2.50;;;1.60;;
67737;SDS011;54534;43.612;1.572;2023-05-07T04:29:23;2.60;;;1.30;;
67737;SDS011;54534;43.612;1.572;2023-05-07T04:31:49;3.40;;;1.30;;
67737;SDS011;54534;43.612;1.572;2023-05-07T04:34:14;1.70;;;1.33;;
67737;SDS011;54534;43.612;1.572;2023-05-07T04:36:40;5.47;;;1.53;;
67737;SDS011;54534;43.612;1.572;2023-05-07T04:39:05;2.13;;;1.40;;
67737;SDS011;54534;43.612;1.572;2023-05-07T04:41:31;2.33;;;1.20;;
67737;SDS011;54534;43.612;1.572;2023-05-07T04:43:57;2.93;;;1.10;;
67737;SDS011;54534;43.612;1.572;2023-05-07T04:46:23;2.97;;;1.60;;
67737;SDS011;54534;43.612;1.572;2023-05-07T04:48:49;1.67;;;1.20;;
67737;SDS011;54534;43.612;1.572;2023-05-07T04:51:15;3.00;;;1.10;;
67737;SDS011;54534;43.612;1.572;2023-05-07T04:53:40;4.63;;;1.40;;
67737;SDS011;54534;43.612;1.572;2023-05-07T04:56:06;4.37;;;1.30;;
67737;SDS011;54534;43.612;1.572;2023-05-07T04:58:31;2.40;;;1.40;;
67737;SDS011;54534;43.612;1.572;2023-05-07T05:00:57;1.93;;;1.00;;
67737;SDS011;54534;43.612;1.572;2023-05-07T05:03:23;2.37;;;1.13;;
67737;SDS011;54534;43.612;1.572;2023-05-07T05:05:49;2.80;;;1.37;;
67737;SDS011;54534;43.612;1.572;2023-05-07T05:08:16;2.73;;;1.73;;
67737;SDS011;54534;43.612;1.572;2023-05-07T05:10:42;2.97;;;1.50;;
67737;SDS011;54534;43.612;1.572;2023-05-07T05:13:08;3.47;;;1.60;;
67737;SDS011;54534;43.612;1.572;2023-05-07T05:15:34;2.63;;;1.13;;
67737;SDS011;54534;43.612;1.572;2023-05-07T05:17:59;2.27;;;1.20;;
67737;SDS011;54534;43.612;1.572;2023-05-07T05:20:25;2.33;;;1.30;;
67737;SDS011;54534;43.612;1.572;2023-05-07T05:22:50;3.27;;;1.23;;
67737;SDS011;54534;43.612;1.572;2023-05-07T05:25:16;1.63;;;1.40;;
67737;SDS011;54534;43.612;1.572;2023-05-07T05:27:41;1.47;;;1.20;;
67737;SDS011;54534;43.612;1.572;2023-05-07T05:30:07;3.63;;;2.43;;
67737;SDS011;54534;43.612;1.572;2023-05-07T05:32:32;4.37;;;1.33;;
67737;SDS011;54534;43.612;1.572;2023-05-07T05:34:58;4.73;;;1.40;;
67737;SDS011;54534;43.612;1.572;2023-05-07T05:37:23;3.53;;;1.50;;
67737;SDS011;54534;43.612;1.572;2023-05-07T05:39:49;2.37;;;1.20;;
67737;SDS011;54534;43.612;1.572;2023-05-07T05:42:15;2.43;;;1.27;;
67737;SDS011;54534;43.612;1.572;2023-05-07T05:44:40;1.37;;;1.10;;
67737;SDS011;54534;43.612;1.572;2023-05-07T05:47:06;2.63;;;1.17;;
67737;SDS011;54534;43.612;1.572;2023-05-07T05:49:31;2.53;;;1.30;;
67737;SDS011;54534;43.612;1.572;2023-05-07T05:51:56;2.07;;;1.30;;
67737;SDS011;54534;43.612;1.572;2023-05-07T05:54:22;3.20;;;1.17;;
67737;SDS011;54534;43.612;1.572;2023-05-07T05:56:47;6.90;;;1.90;;
67737;SDS011;54534;43.612;1.572;2023-05-07T05:59:13;4.73;;;1.70;;
67737;SDS011;54534;43.612;1.572;2023-05-07T06:01:39;8.47;;;2.93;;
67737;SDS011;54534;43.612;1.572;2023-05-07T06:04:04;13.10;;;2.53;;
67737;SDS011;54534;43.612;1.572;2023-05-07T06:06:29;16.97;;;2.23;;
67737;SDS011;54534;43.612;1.572;2023-05-07T06:08:56;8.60;;;2.97;;
67737;SDS011;54534;43.612;1.572;2023-05-07T06:11:22;10.67;;;3.10;;
67737;SDS011;54534;43.612;1.572;2023-05-07T06:13:47;11.60;;;3.10;;
67737;SDS011;54534;43.612;1.572;2023-05-07T06:16:13;11.63;;;2.60;;
67737;SDS011;54534;43.612;1.572;2023-05-07T06:18:40;7.30;;;2.80;;
67737;SDS011;54534;43.612;1.572;2023-05-07T06:21:05;11.47;;;3.23;;
67737;SDS011;54534;43.612;1.572;2023-05-07T06:23:30;7.23;;;3.07;;
67737;SDS011;54534;43.612;1.572;2023-05-07T06:25:56;7.50;;;2.80;;
67737;SDS011;54534;43.612;1.572;2023-05-07T06:28:21;8.53;;;2.47;;
67737;SDS011;54534;43.612;1.572;2023-05-07T06:30:47;15.57;;;4.07;;
67737;SDS011;54534;43.612;1.572;2023-05-07T06:33:13;8.37;;;2.53;;
67737;SDS011;54534;43.612;1.572;2023-05-07T06:35:39;12.17;;;2.90;;
67737;SDS011;54534;43.612;1.572;2023-05-07T06:38:04;13.60;;;3.03;;
67737;SDS011;54534;43.612;1.572;2023-05-07T06:40:30;11.77;;;2.80;;
67737;SDS011;54534;43.612;1.572;2023-05-07T06:42:55;10.43;;;3.23;;
67737;SDS011;54534;43.612;1.572;2023-05-07T06:45:20;10.53;;;3.13;;
67737;SDS011;54534;43.612;1.572;2023-05-07T06:47:46;12.30;;;3.07;;
67737;SDS011;54534;43.612;1.572;2023-05-07T06:50:11;10.57;;;2.90;;
67737;SDS011;54534;43.612;1.572;2023-05-07T06:52:37;6.10;;;2.60;;
67737;SDS011;54534;43.612;1.572;2023-05-07T06:55:02;7.70;;;2.57;;
67737;SDS011;54534;43.612;1.572;2023-05-07T06:57:28;10.07;;;3.40;;
67737;SDS011;54534;43.612;1.572;2023-05-07T06:59:53;11.50;;;2.70;;
67737;SDS011;54534;43.612;1.572;2023-05-07T07:02:19;6.80;;;2.43;;
67737;SDS011;54534;43.612;1.572;2023-05-07T07:04:44;8.27;;;2.53;;
67737;SDS011;54534;43.612;1.572;2023-05-07T07:07:10;11.63;;;2.73;;
67737;SDS011;54534;43.612;1.572;2023-05-07T07:09:35;8.87;;;3.03;;
67737;SDS011;54534;43.612;1.572;2023-05-07T07:12:00;10.20;;;2.97;;
67737;SDS011;54534;43.612;1.572;2023-05-07T07:14:26;12.90;;;3.23;;
67737;SDS011;54534;43.612;1.572;2023-05-07T07:16:51;10.87;;;2.83;;
67737;SDS011;54534;43.612;1.572;2023-05-07T07:19:17;11.20;;;3.03;;
67737;SDS011;54534;43.612;1.572;2023-05-07T07:21:42;10.50;;;2.67;;
67737;SDS011;54534;43.612;1.572;2023-05-07T07:24:08;12.50;;;2.57;;
67737;SDS011;54534;43.612;1.572;2023-05-07T07:26:33;11.70;;;3.00;;
67737;SDS011;54534;43.612;1.572;2023-05-07T07:28:59;6.77;;;2.23;;
67737;SDS011;54534;43.612;1.572;2023-05-07T07:31:24;10.47;;;2.30;;
67737;SDS011;54534;43.612;1.572;2023-05-07T07:33:50;8.60;;;2.67;;
67737;SDS011;54534;43.612;1.572;2023-05-07T07:36:15;12.63;;;2.67;;
67737;SDS011;54534;43.612;1.572;2023-05-07T07:38:40;42.47;;;3.40;;
67737;SDS011;54534;43.612;1.572;2023-05-07T07:41:07;23.93;;;3.80;;
67737;SDS011;54534;43.612;1.572;2023-05-07T07:43:33;18.50;;;3.03;;
67737;SDS011;54534;43.612;1.572;2023-05-07T07:45:59;30.30;;;3.83;;
67737;SDS011;54534;43.612;1.572;2023-05-07T07:48:24;21.43;;;3.57;;
67737;SDS011;54534;43.612;1.572;2023-05-07T07:50:49;22.67;;;3.50;;
67737;SDS011;54534;43.612;1.572;2023-05-07T07:53:16;20.07;;;3.27;;
67737;SDS011;54534;43.612;1.572;2023-05-07T07:55:41;16.87;;;3.90;;
67737;SDS011;54534;43.612;1.572;2023-05-07T07:58:07;13.80;;;3.33;;
67737;SDS011;54534;43.612;1.572;2023-05-07T08:00:32;14.50;;;2.87;;
67737;SDS011;54534;43.612;1.572;2023-05-07T08:02:58;19.40;;;2.83;;
67737;SDS011;54534;43.612;1.572;2023-05-07T08:05:23;22.17;;;3.33;;
67737;SDS011;54534;43.612;1.572;2023-05-07T08:07:49;11.30;;;2.77;;
67737;SDS011;54534;43.612;1.572;2023-05-07T08:10:17;17.33;;;3.20;;
67737;SDS011;54534;43.612;1.572;2023-05-07T08:12:46;11.45;;;3.45;;
67737;SDS011;54534;43.612;1.572;2023-05-07T08:15:15;9.45;;;2.90;;
67737;SDS011;54534;43.612;1.572;2023-05-07T08:17:41;12.60;;;2.63;;
67737;SDS011;54534;43.612;1.572;2023-05-07T08:20:07;10.33;;;3.10;;
67737;SDS011;54534;43.612;1.572;2023-05-07T08:22:33;9.53;;;2.70;;
67737;SDS011;54534;43.612;1.572;2023-05-07T08:25:00;15.73;;;3.13;;
67737;SDS011;54534;43.612;1.572;2023-05-07T08:27:26;8.50;;;3.20;;
67737;SDS011;54534;43.612;1.572;2023-05-07T08:29:51;13.23;;;2.50;;
67737;SDS011;54534;43.612;1.572;2023-05-07T08:32:16;9.27;;;3.67;;
67737;SDS011;54534;43.612;1.572;2023-05-07T08:34:42;9.33;;;2.63;;
67737;SDS011;54534;43.612;1.572;2023-05-07T08:37:07;15.07;;;3.43;;
67737;SDS011;54534;43.612;1.572;2023-05-07T08:39:33;12.50;;;2.70;;
67737;SDS011;54534;43.612;1.572;2023-05-07T08:42:00;11.93;;;2.67;;
67737;SDS011;54534;43.612;1.572;2023-05-07T08:44:27;7.10;;;3.00;;
67737;SDS011;54534;43.612;1.572;2023-05-07T08:46:57;8.47;;;2.33;;
67737;SDS011;54534;43.612;1.572;2023-05-07T08:49:24;10.83;;;2.70;;
67737;SDS011;54534;43.612;1.572;2023-05-07T08:51:49;6.93;;;2.40;;
67737;SDS011;54534;43.612;1.572;2023-05-07T08:54:16;11.37;;;3.00;;
67737;SDS011;54534;43.612;1.572;2023-05-07T08:56:42;13.30;;;3.13;;
67737;SDS011;54534;43.612;1.572;2023-05-07T08:59:08;201.40;;;13.83;;
67737;SDS011;54534;43.612;1.572;2023-05-07T09:01:33;134.13;;;10.50;;
67737;SDS011;54534;43.612;1.572;2023-05-07T09:04:00;80.40;;;7.73;;
67737;SDS011;54534;43.612;1.572;2023-05-07T09:06:26;54.70;;;6.00;;
67737;SDS011;54534;43.612;1.572;2023-05-07T09:08:54;38.10;;;4.87;;
67737;SDS011;54534;43.612;1.572;2023-05-07T09:11:23;16.87;;;4.30;;
67737;SDS011;54534;43.612;1.572;2023-05-07T09:13:56;36.65;;;4.70;;
67737;SDS011;54534;43.612;1.572;2023-05-07T09:16:23;25.27;;;3.57;;
67737;SDS011;54534;43.612;1.572;2023-05-07T09:18:52;29.23;;;4.57;;
67737;SDS011;54534;43.612;1.572;2023-05-07T09:21:18;19.73;;;4.55;;
67737;SDS011;54534;43.612;1.572;2023-05-07T09:23:47;18.60;;;4.00;;
67737;SDS011;54534;43.612;1.572;2023-05-07T09:26:14;24.73;;;3.60;;
67737;SDS011;54534;43.612;1.572;2023-05-07T09:28:39;13.03;;;3.13;;
67737;SDS011;54534;43.612;1.572;2023-05-07T09:31:06;14.03;;;3.03;;
67737;SDS011;54534;43.612;1.572;2023-05-07T09:33:32;21.67;;;3.13;;
67737;SDS011;54534;43.612;1.572;2023-05-07T09:35:57;17.63;;;3.90;;
67737;SDS011;54534;43.612;1.572;2023-05-07T09:38:23;15.40;;;3.07;;
67737;SDS011;54534;43.612;1.572;2023-05-07T09:40:54;13.67;;;3.27;;
67737;SDS011;54534;43.612;1.572;2023-05-07T09:43:31;13.55;;;2.85;;
67737;SDS011;54534;43.612;1.572;2023-05-07T09:45:59;15.87;;;3.27;;
67737;SDS011;54534;43.612;1.572;2023-05-07T09:50:55;15.13;;;2.60;;
67737;SDS011;54534;43.612;1.572;2023-05-07T09:53:24;13.87;;;3.63;;
67737;SDS011;54534;43.612;1.572;2023-05-07T09:55:51;11.10;;;2.70;;
67737;SDS011;54534;43.612;1.572;2023-05-07T09:58:18;11.30;;;3.20;;
67737;SDS011;54534;43.612;1.572;2023-05-07T10:00:43;12.80;;;2.80;;
67737;SDS011;54534;43.612;1.572;2023-05-07T10:03:10;13.40;;;3.40;;
67737;SDS011;54534;43.612;1.572;2023-05-07T10:05:37;9.83;;;2.47;;
67737;SDS011;54534;43.612;1.572;2023-05-07T10:08:04;12.23;;;2.93;;
67737;SDS011;54534;43.612;1.572;2023-05-07T10:10:30;11.37;;;3.23;;
67737;SDS011;54534;43.612;1.572;2023-05-07T10:12:57;8.93;;;2.57;;
67737;SDS011;54534;43.612;1.572;2023-05-07T10:15:23;16.40;;;2.97;;
67737;SDS011;54534;43.612;1.572;2023-05-07T10:17:50;11.03;;;3.17;;
67737;SDS011;54534;43.612;1.572;2023-05-07T10:20:18;13.67;;;3.37;;
67737;SDS011;54534;43.612;1.572;2023-05-07T10:22:44;9.00;;;3.00;;
67737;SDS011;54534;43.612;1.572;2023-05-07T10:27:48;8.50;;;2.57;;
67737;SDS011;54534;43.612;1.572;2023-05-07T10:32:53;10.10;;;2.80;;
67737;SDS011;54534;43.612;1.572;2023-05-07T10:35:23;11.20;;;2.73;;
67737;SDS011;54534;43.612;1.572;2023-05-07T10:37:51;7.15;;;2.38;;
67737;SDS011;54534;43.612;1.572;2023-05-07T10:40:17;8.67;;;2.10;;
67737;SDS011;54534;43.612;1.572;2023-05-07T10:45:41;9.90;;;2.90;;
67737;SDS011;54534;43.612;1.572;2023-05-07T10:50:35;6.73;;;2.30;;
67737;SDS011;54534;43.612;1.572;2023-05-07T10:53:34;7.60;;;2.43;;
67737;SDS011;54534;43.612;1.572;2023-05-07T10:56:23;13.00;;;3.00;;
67737;SDS011;54534;43.612;1.572;2023-05-07T10:58:41;5.03;;;2.00;;
67737;SDS011;54534;43.612;1.572;2023-05-07T11:01:07;6.43;;;2.37;;
67737;SDS011;54534;43.612;1.572;2023-05-07T11:03:32;10.67;;;2.47;;
67737;SDS011;54534;43.612;1.572;2023-05-07T11:06:10;8.60;;;2.67;;
67737;SDS011;54534;43.612;1.572;2023-05-07T11:11:17;8.30;;;2.20;;
67737;SDS011;54534;43.612;1.572;2023-05-07T11:16:16;7.00;;;2.20;;
67737;SDS011;54534;43.612;1.572;2023-05-07T11:18:47;7.77;;;2.93;;
67737;SDS011;54534;43.612;1.572;2023-05-07T11:21:16;8.10;;;3.00;;
67737;SDS011;54534;43.612;1.572;2023-05-07T11:23:59;7.27;;;2.13;;
67737;SDS011;54534;43.612;1.572;2023-05-07T11:26:26;6.37;;;2.40;;
67737;SDS011;54534;43.612;1.572;2023-05-07T11:28:53;16.00;;;3.37;;
67737;SDS011;54534;43.612;1.572;2023-05-07T11:31:20;44.93;;;3.73;;
67737;SDS011;54534;43.612;1.572;2023-05-07T11:33:47;56.73;;;4.83;;
67737;SDS011;54534;43.612;1.572;2023-05-07T11:36:13;46.90;;;3.63;;
67737;SDS011;54534;43.612;1.572;2023-05-07T11:38:38;22.33;;;3.53;;
67737;SDS011;54534;43.612;1.572;2023-05-07T11:41:04;23.83;;;4.00;;
67737;SDS011;54534;43.612;1.572;2023-05-07T11:43:33;26.83;;;2.93;;
67737;SDS011;54534;43.612;1.572;2023-05-07T11:48:35;14.20;;;3.13;;
67737;SDS011;54534;43.612;1.572;2023-05-07T11:51:02;17.33;;;3.17;;
67737;SDS011;54534;43.612;1.572;2023-05-07T11:53:39;18.50;;;4.07;;
67737;SDS011;54534;43.612;1.572;2023-05-07T11:56:09;14.30;;;3.77;;
67737;SDS011;54534;43.612;1.572;2023-05-07T11:58:36;26.37;;;3.87;;
67737;SDS011;54534;43.612;1.572;2023-05-07T12:01:02;22.33;;;5.60;;
67737;SDS011;54534;43.612;1.572;2023-05-07T12:03:28;41.37;;;7.90;;
67737;SDS011;54534;43.612;1.572;2023-05-07T12:05:53;50.97;;;9.23;;
67737;SDS011;54534;43.612;1.572;2023-05-07T12:08:19;46.37;;;10.00;;
67737;SDS011;54534;43.612;1.572;2023-05-07T12:10:47;47.23;;;10.03;;
67737;SDS011;54534;43.612;1.572;2023-05-07T12:13:18;26.23;;;6.63;;
67737;SDS011;54534;43.612;1.572;2023-05-07T12:15:45;28.37;;;7.63;;
67737;SDS011;54534;43.612;1.572;2023-05-07T12:18:11;21.33;;;5.40;;
67737;SDS011;54534;43.612;1.572;2023-05-07T12:20:38;21.60;;;5.50;;
67737;SDS011;54534;43.612;1.572;2023-05-07T12:23:04;32.80;;;6.77;;
67737;SDS011;54534;43.612;1.572;2023-05-07T12:25:30;20.50;;;6.03;;
67737;SDS011;54534;43.612;1.572;2023-05-07T12:28:08;19.60;;;5.40;;
67737;SDS011;54534;43.612;1.572;2023-05-07T12:30:38;20.33;;;5.10;;
67737;SDS011;54534;43.612;1.572;2023-05-07T12:33:04;20.67;;;4.77;;
67737;SDS011;54534;43.612;1.572;2023-05-07T12:35:36;24.97;;;5.53;;
67737;SDS011;54534;43.612;1.572;2023-05-07T12:38:07;19.20;;;5.13;;
67737;SDS011;54534;43.612;1.572;2023-05-07T12:40:37;18.85;;;5.25;;
67737;SDS011;54534;43.612;1.572;2023-05-07T12:43:04;19.93;;;5.53;;
67737;SDS011;54534;43.612;1.572;2023-05-07T12:45:29;17.93;;;4.93;;
67737;SDS011;54534;43.612;1.572;2023-05-07T12:47:55;17.80;;;4.70;;
67737;SDS011;54534;43.612;1.572;2023-05-07T12:50:25;10.13;;;3.90;;
67737;SDS011;54534;43.612;1.572;2023-05-07T12:52:55;16.17;;;5.13;;
67737;SDS011;54534;43.612;1.572;2023-05-07T12:55:21;13.87;;;4.13;;
67737;SDS011;54534;43.612;1.572;2023-05-07T12:57:48;15.97;;;3.70;;
67737;SDS011;54534;43.612;1.572;2023-05-07T13:00:15;12.02;;;3.58;;
67737;SDS011;54534;43.612;1.572;2023-05-07T13:02:42;13.83;;;4.07;;
67737;SDS011;54534;43.612;1.572;2023-05-07T13:05:11;12.37;;;4.00;;
67737;SDS011;54534;43.612;1.572;2023-05-07T13:07:36;14.30;;;3.50;;
67737;SDS011;54534;43.612;1.572;2023-05-07T13:10:02;10.07;;;3.37;;
67737;SDS011;54534;43.612;1.572;2023-05-07T13:12:29;12.70;;;3.70;;
67737;SDS011;54534;43.612;1.572;2023-05-07T13:14:54;10.03;;;3.30;;
67737;SDS011;54534;43.612;1.572;2023-05-07T13:17:19;11.17;;;3.07;;
67737;SDS011;54534;43.612;1.572;2023-05-07T13:19:45;8.73;;;2.73;;
67737;SDS011;54534;43.612;1.572;2023-05-07T13:22:10;13.03;;;3.43;;
67737;SDS011;54534;43.612;1.572;2023-05-07T13:24:36;12.77;;;3.30;;
67737;SDS011;54534;43.612;1.572;2023-05-07T13:27:01;8.37;;;2.73;;
67737;SDS011;54534;43.612;1.572;2023-05-07T13:29:27;9.20;;;2.40;;
67737;SDS011;54534;43.612;1.572;2023-05-07T13:31:57;12.77;;;2.70;;
67737;SDS011;54534;43.612;1.572;2023-05-07T13:34:22;9.57;;;2.47;;
67737;SDS011;54534;43.612;1.572;2023-05-07T13:36:48;11.70;;;2.33;;
67737;SDS011;54534;43.612;1.572;2023-05-07T13:39:13;8.23;;;2.40;;
67737;SDS011;54534;43.612;1.572;2023-05-07T13:41:39;11.07;;;2.60;;
67737;SDS011;54534;43.612;1.572;2023-05-07T13:44:04;5.50;;;2.10;;
67737;SDS011;54534;43.612;1.572;2023-05-07T13:46:29;9.03;;;3.30;;
67737;SDS011;54534;43.612;1.572;2023-05-07T13:48:55;9.73;;;2.40;;
67737;SDS011;54534;43.612;1.572;2023-05-07T13:51:21;10.33;;;3.03;;
67737;SDS011;54534;43.612;1.572;2023-05-07T13:53:47;9.50;;;2.63;;
67737;SDS011;54534;43.612;1.572;2023-05-07T13:56:12;9.67;;;2.17;;
67737;SDS011;54534;43.612;1.572;2023-05-07T13:58:39;5.23;;;2.57;;
67737;SDS011;54534;43.612;1.572;2023-05-07T14:01:04;35.17;;;4.27;;
67737;SDS011;54534;43.612;1.572;2023-05-07T14:03:29;28.30;;;2.97;;
67737;SDS011;54534;43.612;1.572;2023-05-07T14:05:56;20.63;;;3.80;;
67737;SDS011;54534;43.612;1.572;2023-05-07T14:08:22;18.90;;;2.80;;
67737;SDS011;54534;43.612;1.572;2023-05-07T14:10:48;13.37;;;2.90;;
67737;SDS011;54534;43.612;1.572;2023-05-07T14:13:13;10.50;;;2.60;;
67737;SDS011;54534;43.612;1.572;2023-05-07T14:15:39;18.23;;;2.93;;
67737;SDS011;54534;43.612;1.572;2023-05-07T14:18:05;11.90;;;2.70;;
67737;SDS011;54534;43.612;1.572;2023-05-07T14:20:30;7.10;;;2.33;;
67737;SDS011;54534;43.612;1.572;2023-05-07T14:22:56;11.50;;;2.33;;
67737;SDS011;54534;43.612;1.572;2023-05-07T14:25:21;8.53;;;3.10;;
67737;SDS011;54534;43.612;1.572;2023-05-07T14:27:47;8.53;;;2.50;;
67737;SDS011;54534;43.612;1.572;2023-05-07T14:30:12;11.57;;;2.47;;
67737;SDS011;54534;43.612;1.572;2023-05-07T14:32:38;11.77;;;2.10;;
67737;SDS011;54534;43.612;1.572;2023-05-07T14:35:03;11.63;;;2.77;;
67737;SDS011;54534;43.612;1.572;2023-05-07T14:37:29;7.47;;;2.13;;
67737;SDS011;54534;43.612;1.572;2023-05-07T14:39:55;9.97;;;2.20;;
67737;SDS011;54534;43.612;1.572;2023-05-07T14:42:20;5.87;;;1.93;;
67737;SDS011;54534;43.612;1.572;2023-05-07T14:44:46;8.50;;;2.10;;
67737;SDS011;54534;43.612;1.572;2023-05-07T14:47:13;9.80;;;2.40;;
67737;SDS011;54534;43.612;1.572;2023-05-07T14:49:39;8.20;;;2.20;;
67737;SDS011;54534;43.612;1.572;2023-05-07T14:52:05;6.70;;;2.20;;
67737;SDS011;54534;43.612;1.572;2023-05-07T14:54:33;8.37;;;2.23;;
67737;SDS011;54534;43.612;1.572;2023-05-07T14:56:59;11.00;;;3.07;;
67737;SDS011;54534;43.612;1.572;2023-05-07T14:59:25;8.47;;;1.93;;
67737;SDS011;54534;43.612;1.572;2023-05-07T15:01:50;8.23;;;2.30;;